Tiempo atmosférico en la estación meteorológica de Carcaixent, València/Valencia (25 m.)

Fecha
DESCASC
Temp. máxima en grados centígrados (hora)
DESCASC
Temp. mínima en grados centígrados (hora)
DESCASC
Temp. media en grados centígrados
DESCASC
Racha de viento máxima en m/sg (hora)
DESCASC
Velocidad máxima media en intervalos de 10 minutos(hora)
DESCASC
Precipitaciones diarias en mm
DESCASC
Precipitaciones de 00:00 a 06:00 en mm
DESCASC
Precipitaciones de 06:00 a 12:00 en mm
DESCASC
Precipitaciones de 12:00 a 18:00 en mm
DESCASC
Precipitaciones de 18:00 a 24:00 en mm
DESCASC
17-08-2017 34.3 (16:30) 21.5 (05:30) 27.9 8.89 (15:20) 5.28 (18:50) 0 0 0 0 0
16-08-2017 33.5 (15:50) 20.8 (07:40) 27.1 8.33 (16:00) 5.28 (17:10) 0 0 0 0 0
15-08-2017 33.1 (16:50) 19.6 (00:00) 26.3 7.5 (16:00) 4.44 (16:00) 0 0 0 0 0
14-08-2017 29.9 (13:40) 18.3 (03:00) 24.1 8.89 (15:20) 5.56 (15:20) 0 0 0 0 0
13-08-2017 31.4 (14:10) 17.3 (00:00) 24.3 11.11 (18:20) 5.83 (16:30) 0 0 0 0 0
12-08-2017 31.1 (15:20) 15.7 (00:00) 23.4 9.17 (17:10) 5.28 (17:00) 0 0 0 0 0
11-08-2017 28.9 (16:50) 14.5 (00:00) 21.7 9.72 (14:40) 5.56 (15:20) 0 0 0 0 0
10-08-2017 29.3 (16:00) 18.3 (00:00) 23.8 7.5 (00:40) 4.44 (18:30) 0 0 0 0 0
09-08-2017 30.5 (14:10) 21 (00:00) 25.8 12.78 (21:10) 6.11 (21:10) 0.8 0 0 0 0.8
08-08-2017 38 (14:20) 22.9 (00:00) 30.4 13.33 (18:20) 7.5 (18:20) 0 0 0 0 0
07-08-2017 36.7 (18:10) 22.4 (00:00) 29.6 9.17 (20:40) 4.72 (20:40) 1.4 0 0 0 1.4
06-08-2017 33.2 (16:20) 25.3 (00:00) 29.3 11.39 (12:50) 6.94 (12:10) 0 0 0 0 0
05-08-2017 37.1 (17:30) 22.1 (00:00) 29.6 9.44 (20:50) 5.83 (19:50) 0 0 0 0 0
04-08-2017 38 (16:10) 22.1 (00:00) 30.1 6.94 (17:30) 4.17 (13:50) 0 0 0 0 0
03-08-2017 40 (16:20) 22.2 (00:00) 31.1 7.22 (16:00) 4.17 (19:30) 0 0 0 0 0
02-08-2017 30.5 (18:30) 24.6 (00:00) 27.6 9.44 (06:40) 4.44 (00:20) 1.4 0 1.2 0.2 0
01-08-2017 32.5 (16:30) 23.3 (00:00) 27.9 8.33 (14:30) 4.44 (14:30) 0 0 0 0 0
31-07-2017 33.7 (16:00) 22.2 (00:00) 28 8.33 (19:00) 5.28 (17:00) 0 0 0 0 0
30-07-2017 38.4 (15:20) 21.5 (00:00) 30 11.39 (18:40) 6.39 (18:10) 0 0 0 0 0
29-07-2017 37.6 (16:50) 22.3 (00:00) 29.9 8.61 (19:00) 6.11 (19:40) 0 0 0 0 0
28-07-2017 34.1 (15:10) 20.7 (00:00) 27.4 9.72 (15:50) 6.11 (15:20) 0 0 0 0 0
27-07-2017 40.4 (17:30) 21 (00:00) 30.7 7.5 (18:50) 4.72 (20:40) 0 0 0 0 0
26-07-2017 33 (14:10) 18.3 (00:00) 25.6 8.61 (15:30) 5.28 (15:50) 0 0 0 0 0
25-07-2017 30 (12:20) 22.1 (00:00) 26.1 11.67 (15:10) 6.39 (15:10) 0 0 0 0 0
24-07-2017 32.9 (13:40) 23.4 (00:00) 28.2 10 (15:10) 6.11 (15:10) 0 0 0 0 0
23-07-2017 33.2 (16:40) 21.9 (00:00) 27.6 8.89 (18:40) 5.28 (18:30) 0 0 0 0 0
22-07-2017 33.6 (14:50) 22.1 (00:00) 27.8 8.33 (15:00) 5 (14:50) 0 0 0 0 0
21-07-2017 32.6 (14:50) 24 (00:00) 28.3 8.89 (17:10) 5.28 (18:40) 0 0 0 0 0
20-07-2017 33.5 (16:00) 21.2 (00:00) 27.4 8.33 (15:40) 5 (13:50) 0 0 0 0 0
19-07-2017 33.7 (15:40) 22.7 (00:00) 28.2 8.33 (15:50) 5.28 (16:00) 0 0 0 0 0

Gráficas

Temp. máximas Temp. mínimas Temp. medias Precipitaciones Rachas de viento máximas Velocidades máximas media en intervalos de 10 minutos

Datos horarios

Fecha y hora oficial Temperatura (ºC) Velocidad del viento (km/h) Dirección del viento Racha (km/h) Dirección de racha Precipitación (mm) Presión (hPa) Tendencia (hPa) Humedad (%)
2017-08-17 23:00:00 25.7 8 Nordeste 17 Nordeste 0 -- -- 85
2017-08-17 22:00:00 26.3 11 Nordeste 22 Nordeste 0 -- -- 81
2017-08-17 21:00:00 27.7 13 Nordeste 21 Nordeste 0 -- -- 74
2017-08-17 20:00:00 31 9 Nordeste 29 Este 0 -- -- 57
2017-08-17 19:00:00 31.8 16 Este 29 Este 0 -- -- 52
2017-08-17 18:00:00 32.8 12 Este 28 Este 0 -- -- 46
2017-08-17 17:00:00 34.1 10 Este 22 Nordeste 0 -- -- 50
2017-08-17 16:00:00 34 14 Nordeste 32 Nordeste 0 -- -- 52
2017-08-17 15:00:00 32.8 17 Nordeste 28 Nordeste 0 -- -- 57
2017-08-17 14:00:00 32.7 14 Nordeste 26 Nordeste 0 -- -- 59
2017-08-17 13:00:00 31.1 9 Norte 16 Norte 0 -- -- 61
2017-08-17 12:00:00 29.9 3 Norte 9 Sur 0 -- -- 66
2017-08-17 11:00:00 28.2 4 Este 8 Sudoeste 0 -- -- 73
2017-08-17 10:00:00 26.3 5 Sudoeste 9 Sur 0 -- -- 82
2017-08-17 09:00:00 24.3 2 Sur 5 Sur 0 -- -- 94
2017-08-17 08:00:00 22.9 0 Calma 7 Sudeste 0 -- -- 95
2017-08-17 07:00:00 22.6 4 Sur 7 Sudeste 0 -- -- 95
2017-08-17 06:00:00 21.6 0 Calma 3 Sur 0 -- -- 92
2017-08-17 05:00:00 21.8 2 Sur 4 Sur 0 -- -- 91
2017-08-17 04:00:00 22.2 0 Calma 5 Sur 0 -- -- 91
2017-08-17 03:00:00 22.7 0 Calma 0 Calma 0 -- -- 91
2017-08-17 02:00:00 23.5 0 Calma 4 Sur 0 -- -- 89
2017-08-17 01:00:00 24.6 0 Calma 9 Nordeste 0 -- -- 87
2017-08-17 00:00:00 25.2 4 Nordeste 12 Nordeste 0 -- -- 87
2017-08-16 23:00:00 25.7 8 Nordeste 12 Nordeste 0 -- -- 86
2017-08-16 22:00:00 26.3 8 Nordeste 18 Nordeste 0 -- -- 82
2017-08-16 21:00:00 27.5 6 Nordeste 24 Nordeste 0 -- -- 75
2017-08-16 20:00:00 30 14 Nordeste 22 Nordeste 0 -- -- 66
2017-08-16 19:00:00 31.7 11 Este 20 Este 0 -- -- 59
2017-08-16 18:00:00 32.8 14 Nordeste 28 Nordeste 0 -- -- 58
2017-08-16 17:00:00 33 17 Nordeste 28 Norte 0 -- -- 57
2017-08-16 16:00:00 33.1 17 Nordeste 30 Norte 0 -- -- 57
2017-08-16 15:00:00 32.6 10 Nordeste 24 Nordeste 0 -- -- 57
2017-08-16 14:00:00 31.1 14 Nordeste 22 Norte 0 -- -- 63
2017-08-16 13:00:00 30.9 8 Norte 18 Norte 0 -- -- 63
2017-08-16 12:00:00 29.6 6 Nordeste 13 Este 0 -- -- 63
2017-08-16 11:00:00 27.5 5 Norte 11 Norte 0 -- -- 71
2017-08-16 10:00:00 25.7 5 Nordeste 10 Norte 0 -- -- 81
2017-08-16 09:00:00 24.1 3 Nordeste 7 Noroeste 0 -- -- 88
2017-08-16 08:00:00 21.2 4 Norte 5 Norte 0 -- -- 93
2017-08-16 07:00:00 21.1 2 Sudoeste 6 Sudoeste 0 -- -- 92
2017-08-16 06:00:00 21.2 0 Calma 3 Sur 0 -- -- 91
2017-08-16 05:00:00 21.6 0 Calma 4 Nordeste 0 -- -- 90
2017-08-16 04:00:00 22.1 0 Calma 5 Sudeste 0 -- -- 89
2017-08-16 03:00:00 22.4 4 Sudeste 6 Sudeste 0 -- -- 89
2017-08-16 02:00:00 22.9 0 Calma 5 Sudeste 0 -- -- 86
2017-08-16 01:00:00 23.9 2 Sudeste 5 Noroeste 0 -- -- 86
2017-08-16 00:00:00 24.8 6 Noroeste 10 Nordeste 0 -- -- 84
2017-08-15 23:00:00 25.3 4 Nordeste 18 Este 0 -- -- 82
2017-08-15 22:00:00 25.7 10 Nordeste 24 Nordeste 0 -- -- 81
2017-08-15 21:00:00 26.3 10 Nordeste 24 Este 0 -- -- 78
2017-08-15 20:00:00 27.9 8 Este 22 Este 0 -- -- 70
2017-08-15 19:00:00 30.4 11 Nordeste 23 Este 0 -- -- 62
2017-08-15 18:00:00 31.6 10 Este 22 Este 0 -- -- 60
2017-08-15 17:00:00 32.6 10 Este 26 Norte 0 -- -- 55
2017-08-15 16:00:00 32 16 Nordeste 27 Norte 0 -- -- 57
2017-08-15 15:00:00 31.3 10 Norte 22 Nordeste 0 -- -- 59
2017-08-15 14:00:00 28.9 8 Noroeste 15 Noroeste 0 -- -- 64
2017-08-15 13:00:00 28.7 7 Oeste 11 Sur 0 -- -- 64
2017-08-15 12:00:00 26.6 3 Oeste 12 Este 0 -- -- 72
2017-08-15 11:00:00 24.7 8 Oeste 22 Nordeste 0 -- -- 80
2017-08-15 10:00:00 24.6 2 Sur 16 Sudoeste 0 -- -- 79
2017-08-15 09:00:00 23.6 3 Nordeste 9 Sur 0 -- -- 84
2017-08-15 08:00:00 21.4 2 Sur 6 Sur 0 -- -- 93
2017-08-15 07:00:00 20.6 3 Sur 5 Sudeste 0 -- -- 94
2017-08-15 06:00:00 19.7 2 Sur 5 Sudeste 0 -- -- 92
2017-08-15 05:00:00 19.8 0 Calma -- -- 0 -- -- 92
2017-08-15 04:00:00 19.9 0 Calma 4 Sur 0 -- -- 89
2017-08-15 03:00:00 20.2 3 Sudeste 8 Sur 0 -- -- 90
2017-08-15 02:00:00 20.6 4 Sur 5 Sudeste 0 -- -- 88
2017-08-15 01:00:00 21.5 0 Calma -- -- 0 -- -- 86
2017-08-15 00:00:00 22.3 0 Calma 5 Nordeste 0 -- -- 82
2017-08-14 23:00:00 23.5 4 Nordeste 7 Nordeste 0 -- -- 80
2017-08-14 22:00:00 24.3 3 Norte 10 Nordeste 0 -- -- 77
2017-08-14 21:00:00 25.5 7 Nordeste 17 Este 0 -- -- 71
2017-08-14 20:00:00 27.6 9 Este 20 Este 0 -- -- 63
2017-08-14 19:00:00 28.3 14 Este 28 Sudeste 0 -- -- 61
2017-08-14 18:00:00 29 17 Este 31 Este 0 -- -- 58
2017-08-14 17:00:00 29.4 15 Este 30 Sudeste 0 -- -- 55
2017-08-14 16:00:00 29 16 Este 32 Este 0 -- -- 57
2017-08-14 15:00:00 27.5 16 Este 32 Este 0 -- -- 65
2017-08-14 14:00:00 29 15 Sudeste 27 Nordeste 0 -- -- 58
2017-08-14 13:00:00 29 14 Nordeste 23 Norte 0 -- -- 61
2017-08-14 12:00:00 27.9 7 Noroeste 18 Norte 0 -- -- 62
2017-08-14 11:00:00 25.8 6 Nordeste 13 Nordeste 0 -- -- 71
2017-08-14 10:00:00 24.6 3 Sur 10 Sudeste 0 -- -- 73
2017-08-14 09:00:00 22 6 Sur 10 Sur 0 -- -- 81
2017-08-14 08:00:00 19.5 5 Sur 8 Sur 0 -- -- 91
2017-08-14 07:00:00 18.7 4 Sur 6 Sur 0 -- -- 92
2017-08-14 06:00:00 18.7 4 Sur 6 Sur 0 -- -- 91
2017-08-14 05:00:00 18.6 4 Sur 5 Sur 0 -- -- 92
2017-08-14 04:00:00 18.4 0 Calma 4 Sudeste 0 -- -- 90
2017-08-14 03:00:00 18.3 0 Calma 6 Sudeste 0 -- -- 88
2017-08-14 02:00:00 19.2 3 Sudoeste 7 Sudoeste 0 -- -- 86
2017-08-14 01:00:00 20.3 0 Calma 8 Nordeste 0 -- -- 84
2017-08-14 00:00:00 21.9 6 Este 10 Norte 0 -- -- 80
2017-08-13 23:00:00 23.1 5 Norte 15 Este 0 -- -- 75
2017-08-13 22:00:00 23.8 4 Este 13 Este 0 -- -- 72
2017-08-13 21:00:00 25.3 9 Este 24 Este 0 -- -- 67
2017-08-13 20:00:00 27.4 11 Este 33 Este 0 -- -- 61
2017-08-13 19:00:00 28 18 Este 40 Sudeste 0 -- -- 57
2017-08-13 18:00:00 29.4 17 Este 37 Este 0 -- -- 53
2017-08-13 17:00:00 29.7 20 Este 35 Este 0 -- -- 54
2017-08-13 16:00:00 30.2 19 Sudeste 31 Sudeste 0 -- -- 56
2017-08-13 15:00:00 30.9 15 Este 28 Este 0 -- -- 52
2017-08-13 14:00:00 31.3 12 Sudeste 22 Norte 0 -- -- 50
2017-08-13 13:00:00 29.7 9 Nordeste 21 Nordeste 0 -- -- 58
2017-08-13 12:00:00 28.6 7 Nordeste 14 Nordeste 0 -- -- 58
2017-08-13 11:00:00 25.9 5 Noroeste 12 Oeste 0 -- -- 68
2017-08-13 10:00:00 24.4 4 Oeste 8 Sur 0 -- -- 75
2017-08-13 09:00:00 22.6 4 Oeste 5 Oeste 0 -- -- 83
2017-08-13 08:00:00 18.9 0 Calma 7 Sudeste 0 -- -- 95
2017-08-13 07:00:00 17.3 3 Sur 4 Sur 0 -- -- 92
2017-08-13 06:00:00 17.4 0 Calma 4 Sudeste 0 -- -- 91
2017-08-13 05:00:00 18 3 Sur 8 Sur 0 -- -- 93
2017-08-13 04:00:00 17.8 2 Sur 4 Sudeste 0 -- -- 91
2017-08-13 03:00:00 17.9 0 Calma 2 Sudeste 0 -- -- 88
2017-08-13 02:00:00 18.8 2 Sudoeste 5 Sudeste 0 -- -- 87
2017-08-13 01:00:00 19.6 0 Calma 6 Sur 0 -- -- 86
2017-08-13 00:00:00 20.6 0 Calma 5 Sudeste 0 -- -- 81
2017-08-12 23:00:00 22.6 4 Nordeste 11 Nordeste 0 -- -- 78
2017-08-12 22:00:00 23.8 7 Nordeste 11 Sudeste 0 -- -- 72
2017-08-12 21:00:00 25.5 4 Este 26 Sudeste 0 -- -- 65
2017-08-12 20:00:00 26.9 14 Este 27 Este 0 -- -- 60
2017-08-12 19:00:00 28.9 16 Sudeste 30 Este 0 -- -- 49
2017-08-12 18:00:00 29.7 15 Este 33 Sudeste 0 -- -- 42
2017-08-12 17:00:00 30 19 Sudeste 32 Sudeste 0 -- -- 43
2017-08-12 16:00:00 30.1 18 Sudeste 31 Este 0 -- -- 43
2017-08-12 15:00:00 30.9 10 Sudeste 21 Oeste 0 -- -- 46
2017-08-12 14:00:00 30 12 Norte 23 Nordeste 0 -- -- 53
2017-08-12 13:00:00 29.1 6 Nordeste 14 Norte 0 -- -- 53
2017-08-12 12:00:00 26.7 6 Norte 10 Sudoeste 0 -- -- 60
2017-08-12 11:00:00 26 5 Oeste 12 Sur 0 -- -- 64
2017-08-12 10:00:00 23.7 5 Sudoeste 9 Oeste 0 -- -- 71
2017-08-12 09:00:00 21.1 5 Sur 9 Sur 0 -- -- 83
2017-08-12 08:00:00 17.5 4 Sur 9 Sur 0 -- -- 95
2017-08-12 07:00:00 15.8 2 Sudeste 5 Sur 0 -- -- 92
2017-08-12 06:00:00 15.9 2 Sur 5 Sur 0 -- -- 91
2017-08-12 05:00:00 16.1 0 Calma 4 Sur 0 -- -- 89
2017-08-12 04:00:00 17.2 3 Sur 5 Sur 0 -- -- 90
2017-08-12 03:00:00 17.7 0 Calma 4 Sur 0 -- -- 87
2017-08-12 02:00:00 19.1 5 Sudeste 6 Sudeste 0 -- -- 85
2017-08-12 01:00:00 20.8 5 Norte 8 Norte 0 -- -- 83
2017-08-12 00:00:00 22 5 Norte 8 Norte 0 -- -- 78
2017-08-11 23:00:00 23 3 Norte 12 Nordeste 0 -- -- 74
2017-08-11 22:00:00 23.7 8 Norte 14 Este 0 -- -- 71
2017-08-11 21:00:00 24.7 7 Nordeste 28 Este 0 -- -- 67
2017-08-11 20:00:00 26.1 17 Este 30 Este 0 -- -- 61
2017-08-11 19:00:00 27.6 15 Este 30 Este 0 -- -- 54
2017-08-11 18:00:00 27.7 17 Este 31 Este 0 -- -- 51
2017-08-11 17:00:00 28.4 15 Este 28 Este 0 -- -- 47
2017-08-11 16:00:00 28.2 15 Este 32 Este 0 -- -- 47
2017-08-11 15:00:00 28.4 18 Este 35 Este 0 -- -- 47
2017-08-11 14:00:00 28.3 16 Este 32 Este 0 -- -- 51
2017-08-11 13:00:00 28.2 14 Este 23 Este 0 -- -- 51
2017-08-11 12:00:00 27.1 15 Norte 22 Norte 0 -- -- 54
2017-08-11 11:00:00 25.7 4 Nordeste 8 Noroeste 0 -- -- 55
2017-08-11 10:00:00 23.2 4 Sudoeste 10 Oeste 0 -- -- 59
2017-08-11 09:00:00 20.8 5 Sudoeste 9 Oeste 0 -- -- 69
2017-08-11 08:00:00 16.2 3 Sur 8 Sur 0 -- -- 89
2017-08-11 07:00:00 14.6 3 Sur 5 Sur 0 -- -- 88
2017-08-11 06:00:00 15.3 3 Sur 8 Sur 0 -- -- 87
2017-08-11 05:00:00 15.2 4 Sur 7 Sudeste 0 -- -- 88
2017-08-11 04:00:00 15.3 0 Calma -- -- 0 -- -- 89
2017-08-11 03:00:00 15.4 0 Calma -- -- 0 -- -- 85
2017-08-11 02:00:00 16.2 0 Calma 3 Sur 0 -- -- 84
2017-08-11 01:00:00 17 0 Calma 6 Sur 0 -- -- 80
2017-08-11 00:00:00 18.3 3 Sur 9 Sur 0 -- -- 76
2017-08-10 23:00:00 20.5 0 Calma 14 Nordeste 0 -- -- 65
2017-08-10 22:00:00 22.3 7 Nordeste 17 Nordeste 0 -- -- 58
2017-08-10 21:00:00 23.9 3 Nordeste 19 Este 0 -- -- 52
2017-08-10 20:00:00 26.8 7 Este 23 Sudeste 0 -- -- 45
2017-08-10 19:00:00 27.7 13 Sudeste 24 Sudeste 0 -- -- 43
2017-08-10 18:00:00 28.8 11 Este 23 Este 0 -- -- 41
2017-08-10 17:00:00 28.5 15 Sudeste 27 Sudeste 0 -- -- 42
2017-08-10 16:00:00 29.3 7 Sur 18 Norte 0 -- -- 40
2017-08-10 15:00:00 28.2 10 Nordeste 17 Nordeste 0 -- -- 40
2017-08-10 14:00:00 25.9 5 Norte 11 Norte 0 -- -- 47
2017-08-10 13:00:00 23.2 4 Sudeste 10 Sur 0 -- -- 53
2017-08-10 12:00:00 21.7 4 Sudoeste 8 Noroeste 0 -- -- 58
2017-08-10 11:00:00 21 3 Oeste 10 Nordeste 0 -- -- 62
2017-08-10 10:00:00 20.1 5 Nordeste 14 Norte 0 -- -- 66
2017-08-10 09:00:00 19.2 6 Nordeste 19 Nordeste 0 -- -- 67
2017-08-10 08:00:00 18.7 6 Nordeste 16 Nordeste 0 -- -- 73
2017-08-10 07:00:00 18.9 10 Nordeste 19 Nordeste 0 -- -- 70
2017-08-10 06:00:00 19.5 10 Nordeste 24 Nordeste 0 -- -- 70
2017-08-10 05:00:00 20.6 12 Nordeste 27 Nordeste 0 -- -- 63
2017-08-10 04:00:00 21.1 10 Nordeste 24 Nordeste 0 -- -- 63
2017-08-10 03:00:00 21.5 8 Nordeste 14 Nordeste 0 -- -- 64
2017-08-10 02:00:00 21.8 12 Nordeste 25 Nordeste 0 -- -- 63
2017-08-10 01:00:00 21.8 11 Nordeste 27 Nordeste 0 -- -- 67
2017-08-10 00:00:00 21.7 18 Nordeste 36 Nordeste 0 -- -- 67
2017-08-09 23:00:00 22.2 16 Nordeste 37 Nordeste 0 -- -- 69
2017-08-09 22:00:00 21.9 15 Nordeste 46 Nordeste 0.8 -- -- 83
2017-08-09 21:00:00 25.1 17 Nordeste 34 Nordeste 0 -- -- 82
2017-08-09 20:00:00 26.6 19 Nordeste 33 Este 0 -- -- 74
2017-08-09 19:00:00 28.1 15 Nordeste 30 Nordeste 0 -- -- 69
2017-08-09 18:00:00 28.8 17 Este 32 Este 0 -- -- 66
2017-08-09 17:00:00 28.6 22 Nordeste 34 Nordeste 0 -- -- 66
2017-08-09 16:00:00 30 19 Este 35 Nordeste 0 -- -- 63
2017-08-09 15:00:00 29 18 Nordeste 32 Nordeste 0 -- -- 65
2017-08-09 14:00:00 30.1 16 Nordeste 27 Nordeste 0 -- -- 56
2017-08-09 13:00:00 28.4 12 Nordeste 22 Nordeste 0 -- -- 63
2017-08-09 12:00:00 27.6 11 Nordeste 23 Nordeste 0 -- -- 64
2017-08-09 11:00:00 28.4 10 Nordeste 21 Nordeste 0 -- -- 61
2017-08-09 10:00:00 26.1 9 Noroeste 15 Noroeste 0 -- -- 74
2017-08-09 09:00:00 23.3 3 Sur 6 Noroeste 0 -- -- 86
2017-08-09 08:00:00 21.7 2 Sudoeste 7 Sudeste 0 -- -- 90
2017-08-09 07:00:00 21 2 Sur 6 Sudeste 0 -- -- 89
2017-08-09 06:00:00 22 3 Sudoeste 7 Sudoeste 0 -- -- 88
2017-08-09 05:00:00 22.8 6 Nordeste 15 Nordeste 0 -- -- 81
2017-08-09 04:00:00 22.8 0 Calma 9 Nordeste 0 -- -- 82
2017-08-09 03:00:00 23.4 4 Nordeste 10 Este 0 -- -- 81
2017-08-09 02:00:00 23.5 5 Nordeste 9 Nordeste 0 -- -- 80
2017-08-09 01:00:00 24.8 2 Este 14 Este 0 -- -- 74
2017-08-09 00:00:00 25.7 4 Este 17 Este 0 -- -- 72
2017-08-08 23:00:00 26.2 8 Este 17 Este 0 -- -- 71
2017-08-08 22:00:00 26.3 6 Este 17 Este 0 -- -- 61
2017-08-08 21:00:00 27.7 8 Este 27 Este 0 -- -- 55
2017-08-08 20:00:00 29.2 14 Este 33 Nordeste 0 -- -- 51
2017-08-08 19:00:00 30.2 18 Este 48 Sudeste 0 -- -- 52
2017-08-08 18:00:00 31.4 23 Sudeste 39 Sudeste 0 -- -- 53
2017-08-08 17:00:00 33.8 16 Este 34 Este 0 -- -- 48
2017-08-08 16:00:00 36 10 Nordeste 26 Este 0 -- -- 43
2017-08-08 15:00:00 36.6 13 Nordeste 33 Noroeste 0 -- -- 35
2017-08-08 14:00:00 37.3 19 Noroeste 33 Oeste 0 -- -- 16
2017-08-08 13:00:00 34.7 13 Noroeste 26 Noroeste 0 -- -- 23
2017-08-08 12:00:00 32.9 12 Norte 19 Norte 0 -- -- 26
2017-08-08 11:00:00 32 9 Noroeste 21 Oeste 0 -- -- 26
2017-08-08 10:00:00 28.6 6 Sudoeste 12 Sudoeste 0 -- -- 41
2017-08-08 09:00:00 25.2 4 Sur 13 Oeste 0 -- -- 91
2017-08-08 08:00:00 23 4 Sudoeste 10 Sur 0 -- -- 95
2017-08-08 07:00:00 23 3 Sur 9 Oeste 0 -- -- 94
2017-08-08 06:00:00 23.7 4 Sudoeste 9 Oeste 0 -- -- 94
2017-08-08 05:00:00 24.4 4 Sudoeste 6 Sudoeste 0 -- -- 93
2017-08-08 04:00:00 25 3 Oeste 12 Sur 0 -- -- 93
2017-08-08 03:00:00 25.6 6 Sur 11 Sudeste 0 -- -- 93
2017-08-08 02:00:00 25.7 4 Oeste 16 Nordeste 0 -- -- 91
2017-08-08 01:00:00 26.2 9 Nordeste 23 Norte 0 -- -- 91
2017-08-08 00:00:00 26.3 12 Norte 21 Nordeste 0 -- -- 90
2017-08-07 23:00:00 25.5 6 Nordeste 12 Noroeste 0 -- -- 85
2017-08-07 22:00:00 26.1 10 Noroeste 24 Noroeste 0.2 -- -- 80
2017-08-07 21:00:00 28 14 Sudeste 33 Noroeste 1.2 -- -- 69
2017-08-07 20:00:00 31.6 8 Noroeste 19 Norte 0 -- -- 68
2017-08-07 19:00:00 32.4 12 Nordeste 22 Norte 0 -- -- 63
2017-08-07 18:00:00 36.4 8 Este 20 Sudeste 0 -- -- 49
2017-08-07 17:00:00 35.7 10 Este 24 Sudeste 0 -- -- 50
2017-08-07 16:00:00 35.3 13 Sudeste 24 Sudeste 0 -- -- 53
2017-08-07 15:00:00 34.6 13 Nordeste 24 Norte 0 -- -- 55
2017-08-07 14:00:00 33.1 6 Norte 17 Nordeste 0 -- -- 59
2017-08-07 13:00:00 32.1 7 Sudoeste 15 Oeste 0 -- -- 59
2017-08-07 12:00:00 29.7 5 Sudoeste 9 Sudoeste 0 -- -- 67
2017-08-07 11:00:00 29.1 4 Noroeste 14 Oeste 0 -- -- 71
2017-08-07 10:00:00 27.7 3 Sudoeste 8 Sur 0 -- -- 77
2017-08-07 09:00:00 26.2 3 Sudoeste 5 Sudoeste 0 -- -- 88
2017-08-07 08:00:00 23.4 0 Calma 5 Sudoeste 0 -- -- 95
2017-08-07 07:00:00 22.5 0 Calma 5 Sur 0 -- -- 91
2017-08-07 06:00:00 23.2 0 Calma 5 Sudoeste 0 -- -- 91
2017-08-07 05:00:00 23.2 0 Calma 3 Sudeste 0 -- -- 92
2017-08-07 04:00:00 22.9 0 Calma 4 Sudeste 0 -- -- 90
2017-08-07 03:00:00 23.5 2 Sudeste 4 Sudeste 0 -- -- 87
2017-08-07 02:00:00 24.5 0 Calma 5 Este 0 -- -- 87
2017-08-07 01:00:00 25.5 2 Norte 9 Nordeste 0 -- -- 85
2017-08-07 00:00:00 26.3 5 Nordeste 9 Este 0 -- -- 81
2017-08-06 23:00:00 26.9 4 Este 13 Este 0 -- -- 81
2017-08-06 22:00:00 27.3 7 Nordeste 14 Este 0 -- -- 77
2017-08-06 21:00:00 28.6 6 Este 19 Este 0 -- -- 74
2017-08-06 20:00:00 29.8 9 Nordeste 23 Este 0 -- -- 69
2017-08-06 19:00:00 30.3 15 Este 30 Este 0 -- -- 67
2017-08-06 18:00:00 31.2 15 Este 25 Este 0 -- -- 64
2017-08-06 17:00:00 32 12 Este 24 Este 0 -- -- 57
2017-08-06 16:00:00 32.3 13 Nordeste 28 Este 0 -- -- 60
2017-08-06 15:00:00 32.7 16 Nordeste 32 Nordeste 0 -- -- 61
2017-08-06 14:00:00 32.1 19 Nordeste 36 Nordeste 0 -- -- 66
2017-08-06 13:00:00 31.7 20 Nordeste 41 Este 0 -- -- 65
2017-08-06 12:00:00 30.9 19 Nordeste 36 Nordeste 0 -- -- 69
2017-08-06 11:00:00 30.9 10 Nordeste 20 Nordeste 0 -- -- 70
2017-08-06 10:00:00 28.3 3 Noroeste 8 Norte 0 -- -- 81
2017-08-06 09:00:00 27.2 4 Sur 9 Este 0 -- -- 84
2017-08-06 08:00:00 25.8 0 Calma 7 Oeste 0 -- -- 89
2017-08-06 07:00:00 25.3 0 Calma 3 Oeste 0 -- -- 91
2017-08-06 06:00:00 25.8 3 Noroeste 11 Norte 0 -- -- 88
2017-08-06 05:00:00 26.2 6 Norte 9 Norte 0 -- -- 92
2017-08-06 04:00:00 25.6 5 Nordeste 8 Nordeste 0 -- -- 92
2017-08-06 03:00:00 26.3 3 Nordeste 12 Norte 0 -- -- 88
2017-08-06 02:00:00 26.7 4 Noroeste 18 Norte 0 -- -- 89
2017-08-06 01:00:00 27.1 12 Sudeste 17 Sudeste 0 -- -- 88
2017-08-06 00:00:00 27.4 4 Noroeste 12 Nordeste 0 -- -- 84
2017-08-05 23:00:00 27.7 9 Nordeste 27 Norte 0 -- -- 85
2017-08-05 22:00:00 28 14 Nordeste 26 Nordeste 0 -- -- 84
2017-08-05 21:00:00 28.6 15 Nordeste 34 Nordeste 0 -- -- 83
2017-08-05 20:00:00 30.1 19 Norte 32 Nordeste 0 -- -- 75
2017-08-05 19:00:00 33.3 18 Nordeste 31 Norte 0 -- -- 64
2017-08-05 18:00:00 36.7 14 Nordeste 25 Este 0 -- -- 49
2017-08-05 17:00:00 36.6 8 Este 23 Sudeste 0 -- -- 51
2017-08-05 16:00:00 35.9 14 Sudeste 28 Este 0 -- -- 49
2017-08-05 15:00:00 35.6 15 Este 27 Nordeste 0 -- -- 50
2017-08-05 14:00:00 34.8 18 Nordeste 28 Nordeste 0 -- -- 54
2017-08-05 13:00:00 33.9 11 Norte 24 Norte 0 -- -- 55
2017-08-05 12:00:00 32.7 8 Nordeste 17 Noroeste 0 -- -- 53
2017-08-05 11:00:00 30.6 5 Nordeste 9 Norte 0 -- -- 56
2017-08-05 10:00:00 28.3 2 Sudoeste 8 Sudoeste 0 -- -- 57
2017-08-05 09:00:00 25.6 5 Sur 8 Sudoeste 0 -- -- 68
2017-08-05 08:00:00 22.8 5 Sur 9 Sur 0 -- -- 87
2017-08-05 07:00:00 22.2 4 Sur 8 Sur 0 -- -- 87
2017-08-05 06:00:00 22.9 6 Sur 8 Sur 0 -- -- 88
2017-08-05 05:00:00 23.7 5 Sur 6 Sur 0 -- -- 87
2017-08-05 04:00:00 24.8 0 Calma 4 Sudoeste 0 -- -- 88
2017-08-05 03:00:00 25.7 3 Sur 9 Sur 0 -- -- 90
2017-08-05 02:00:00 25.8 4 Sur 8 Sur 0 -- -- 90
2017-08-05 01:00:00 26.2 2 Sudoeste 7 Sudeste 0 -- -- 88
2017-08-05 00:00:00 26.6 3 Este 11 Nordeste 0 -- -- 85
2017-08-04 23:00:00 27.3 7 Nordeste 14 Norte 0 -- -- 86
2017-08-04 22:00:00 28 10 Nordeste 17 Nordeste 0 -- -- 80
2017-08-04 21:00:00 30.1 10 Nordeste 21 Nordeste 0 -- -- 65
2017-08-04 20:00:00 33.3 13 Nordeste 23 Nordeste 0 -- -- 52
2017-08-04 19:00:00 36.8 12 Nordeste 22 Sudeste 0 -- -- 44
2017-08-04 18:00:00 37.3 12 Sudeste 25 Este 0 -- -- 40
2017-08-04 17:00:00 37.6 12 Este 24 Sudeste 0 -- -- 37
2017-08-04 16:00:00 37.9 11 Nordeste 23 Norte 0 -- -- 41
2017-08-04 15:00:00 36.7 14 Norte 24 Norte 0 -- -- 52
2017-08-04 14:00:00 35.1 14 Nordeste 24 Nordeste 0 -- -- 54
2017-08-04 13:00:00 34.4 12 Nordeste 22 Nordeste 0 -- -- 56
2017-08-04 12:00:00 33.4 10 Norte 20 Norte 0 -- -- 55
2017-08-04 11:00:00 31.3 6 Norte 11 Nordeste 0 -- -- 49
2017-08-04 10:00:00 29 4 Oeste 10 Sudoeste 0 -- -- 56
2017-08-04 09:00:00 26.3 5 Sudoeste 12 Sur 0 -- -- 65
2017-08-04 08:00:00 23 7 Sur 12 Sur 0 -- -- 79
2017-08-04 07:00:00 22.2 6 Sur 9 Sur 0 -- -- 81
2017-08-04 06:00:00 22.4 5 Sur 9 Sur 0 -- -- 79
2017-08-04 05:00:00 23.5 7 Sur 11 Sur 0 -- -- 74
2017-08-04 04:00:00 22.4 8 Sur 10 Sur 0 -- -- 82
2017-08-04 03:00:00 22.9 2 Sur 6 Sur 0 -- -- 82
2017-08-04 02:00:00 23.7 2 Sudoeste 6 Sur 0 -- -- 80
2017-08-04 01:00:00 24.4 3 Sur 5 Sudoeste 0 -- -- 79
2017-08-04 00:00:00 25.7 3 Sudoeste 8 Sur 0 -- -- 75
2017-08-03 23:00:00 27.2 4 Sudeste 13 Norte 0 -- -- 73
2017-08-03 22:00:00 28.7 7 Nordeste 16 Nordeste 0 -- -- 67
2017-08-03 21:00:00 30.9 8 Norte 19 Nordeste 0 -- -- 51
2017-08-03 20:00:00 33.5 13 Nordeste 22 Nordeste 0 -- -- 53
2017-08-03 19:00:00 36.9 9 Nordeste 23 Este 0 -- -- 39
2017-08-03 18:00:00 37.9 13 Este 23 Este 0 -- -- 36
2017-08-03 17:00:00 38.8 13 Este 24 Sudeste 0 -- -- 35
2017-08-03 16:00:00 39.8 15 Norte 26 Nordeste 0 -- -- 36
2017-08-03 15:00:00 38.4 7 Nordeste 13 Norte 0 -- -- 37
2017-08-03 14:00:00 36.9 7 Noroeste 13 Noroeste 0 -- -- 37
2017-08-03 13:00:00 35.4 5 Oeste 13 Sur 0 -- -- 42
2017-08-03 12:00:00 33.4 6 Sudoeste 21 Sur 0 -- -- 46
2017-08-03 11:00:00 31.1 8 Sur 15 Sudoeste 0 -- -- 55
2017-08-03 10:00:00 28.2 8 Sur 15 Sur 0 -- -- 64
2017-08-03 09:00:00 25.3 9 Sur 13 Sur 0 -- -- 76
2017-08-03 08:00:00 22.8 8 Sur 13 Sur 0 -- -- 90
2017-08-03 07:00:00 22.3 6 Sur 10 Sur 0 -- -- 92
2017-08-03 06:00:00 22.5 5 Sur 10 Sur 0 -- -- 92
2017-08-03 05:00:00 22.6 4 Sur 9 Sudeste 0 -- -- 92
2017-08-03 04:00:00 23.4 5 Sudoeste 12 Sur 0 -- -- 90
2017-08-03 03:00:00 24 8 Sur 12 Sur 0 -- -- 92
2017-08-03 02:00:00 23.9 6 Sur 9 Sur 0 -- -- 92
2017-08-03 01:00:00 24.4 0 Calma 6 Sur 0 -- -- 90
2017-08-03 00:00:00 24.7 4 Sur 7 Sudeste 0 -- -- 88
2017-08-02 23:00:00 25.2 3 Sur 5 Sur 0 -- -- 85
2017-08-02 22:00:00 26.6 3 Sudeste 6 Oeste 0 -- -- 85
2017-08-02 21:00:00 27.9 0 Calma 12 Nordeste 0 -- -- 79
2017-08-02 20:00:00 29 8 Nordeste 18 Nordeste 0 -- -- 73
2017-08-02 19:00:00 29.9 10 Norte 18 Nordeste 0 -- -- 75
2017-08-02 18:00:00 30 8 Norte 14 Nordeste 0 -- -- 78
2017-08-02 17:00:00 29.4 8 Norte 14 Noroeste 0 -- -- 83
2017-08-02 16:00:00 27.6 8 Norte 18 Noroeste 0.2 -- -- 89
2017-08-02 15:00:00 26.9 16 Oeste 30 Noroeste 0 -- -- 89
2017-08-02 14:00:00 27.1 9 Nordeste 17 Este 0 -- -- 86
2017-08-02 13:00:00 27.4 9 Norte 16 Norte 0 -- -- 83
2017-08-02 12:00:00 26.8 4 Sur 16 Sudoeste 0 -- -- 88
2017-08-02 11:00:00 26.2 8 Oeste 17 Oeste 0.4 -- -- 90
2017-08-02 10:00:00 25.6 8 Este 15 Oeste 0 -- -- 91
2017-08-02 09:00:00 24.9 6 Sur 10 Sur 0 -- -- 93
2017-08-02 08:00:00 24.6 2 Nordeste 29 Norte 0 -- -- 92
2017-08-02 07:00:00 24.6 9 Nordeste 34 Este 0.8 -- -- 90
2017-08-02 06:00:00 24.7 4 Sur 14 Sudoeste 0 -- -- 92
2017-08-02 05:00:00 24.8 4 Este 9 Sudeste 0 -- -- 91
2017-08-02 04:00:00 25.3 3 Sudeste 11 Noroeste 0 -- -- 88
2017-08-02 03:00:00 25.8 11 Nordeste 20 Nordeste 0 -- -- 87
2017-08-02 02:00:00 26.2 6 Noroeste 23 Oeste 0 -- -- 86
2017-08-02 01:00:00 26.2 9 Norte 27 Oeste 0 -- -- 89
2017-08-02 00:00:00 26.7 8 Sudoeste 27 Oeste 0 -- -- 85
2017-08-01 23:00:00 26.7 7 Noroeste 16 Noroeste 0 -- -- 87
2017-08-01 22:00:00 27 12 Nordeste 24 Norte 0 -- -- 86
2017-08-01 21:00:00 27.2 12 Nordeste 24 Nordeste 0 -- -- 85
2017-08-01 20:00:00 28 11 Nordeste 24 Nordeste 0 -- -- 78
2017-08-01 19:00:00 29.8 6 Norte 23 Este 0 -- -- 70
2017-08-01 18:00:00 30.9 13 Este 26 Este 0 -- -- 63
2017-08-01 17:00:00 32.1 10 Sudeste 17 Sudeste 0 -- -- 61
2017-08-01 16:00:00 32 7 Este 18 Nordeste 0 -- -- 62
2017-08-01 15:00:00 31.8 11 Nordeste 30 Este 0 -- -- 65
2017-08-01 14:00:00 31 13 Nordeste 23 Norte 0 -- -- 68
2017-08-01 13:00:00 31.1 4 Nordeste 15 Oeste 0 -- -- 63
2017-08-01 12:00:00 30.6 9 Nordeste 15 Nordeste 0 -- -- 69
2017-08-01 11:00:00 29 7 Norte 13 Norte 0 -- -- 74
2017-08-01 10:00:00 27.9 3 Nordeste 12 Norte 0 -- -- 81
2017-08-01 09:00:00 25.6 2 Sudeste 6 Oeste 0 -- -- 90
2017-08-01 08:00:00 23.7 3 Sudoeste 5 Sudoeste 0 -- -- 94
2017-08-01 07:00:00 23.4 3 Sudeste 5 Sudeste 0 -- -- 93
2017-08-01 06:00:00 23.6 0 Calma 5 Sudeste 0 -- -- 92
2017-08-01 05:00:00 23.7 0 Calma 5 Sur 0 -- -- 91
2017-08-01 04:00:00 24.4 5 Sur 11 Sur 0 -- -- 91
2017-08-01 03:00:00 25 4 Sur 6 Este 0 -- -- 88
2017-08-01 02:00:00 25.5 4 Sur 12 Noroeste 0 -- -- 88
2017-08-01 01:00:00 25.4 4 Norte 9 Norte 0 -- -- 87
2017-08-01 00:00:00 25.7 3 Nordeste 9 Nordeste 0 -- -- 85
2017-07-31 23:00:00 26.2 5 Nordeste 13 Nordeste 0 -- -- 83
2017-07-31 22:00:00 26.8 8 Nordeste 19 Nordeste 0 -- -- 81
2017-07-31 21:00:00 27.9 10 Nordeste 22 Nordeste 0 -- -- 77
2017-07-31 20:00:00 29.8 13 Nordeste 27 Nordeste 0 -- -- 70
2017-07-31 19:00:00 31.2 19 Nordeste 30 Norte 0 -- -- 66
2017-07-31 18:00:00 32.5 15 Nordeste 30 Norte 0 -- -- 61
2017-07-31 17:00:00 33 19 Nordeste 29 Nordeste 0 -- -- 58
2017-07-31 16:00:00 33.7 11 Nordeste 28 Nordeste 0 -- -- 56
2017-07-31 15:00:00 32.8 11 Nordeste 26 Este 0 -- -- 60
2017-07-31 14:00:00 32.2 15 Nordeste 29 Nordeste 0 -- -- 62
2017-07-31 13:00:00 31.7 15 Nordeste 26 Nordeste 0 -- -- 63
2017-07-31 12:00:00 30 15 Nordeste 23 Nordeste 0 -- -- 69
2017-07-31 11:00:00 29.2 9 Nordeste 18 Nordeste 0 -- -- 73
2017-07-31 10:00:00 27.2 3 Este 8 Noroeste 0 -- -- 81
2017-07-31 09:00:00 25 0 Calma 4 Sur 0 -- -- 90
2017-07-31 08:00:00 23.3 0 Calma 5 Sudeste 0 -- -- 94
2017-07-31 07:00:00 22.4 0 Calma 5 Sur 0 -- -- 93
2017-07-31 06:00:00 23.5 0 Calma 6 Noroeste 0 -- -- 91
2017-07-31 05:00:00 24.8 6 Noroeste 10 Noroeste 0 -- -- 89
2017-07-31 04:00:00 25.3 5 Nordeste 10 Norte 0 -- -- 88
2017-07-31 03:00:00 25.7 6 Nordeste 12 Norte 0 -- -- 87
2017-07-31 02:00:00 26.3 6 Nordeste 13 Nordeste 0 -- -- 85
2017-07-31 01:00:00 26.5 8 Nordeste 17 Nordeste 0 -- -- 85
2017-07-31 00:00:00 26.6 10 Nordeste 19 Nordeste 0 -- -- 86
2017-07-30 23:00:00 26.5 9 Nordeste 19 Nordeste 0 -- -- 88
2017-07-30 22:00:00 26.5 12 Nordeste 23 Nordeste 0 -- -- 88
2017-07-30 21:00:00 27.2 14 Nordeste 30 Norte 0 -- -- 83
2017-07-30 20:00:00 29 15 Nordeste 36 Nordeste 0 -- -- 77
2017-07-30 19:00:00 30.9 21 Nordeste 41 Nordeste 0 -- -- 71
2017-07-30 18:00:00 32.8 21 Nordeste 33 Norte 0 -- -- 64
2017-07-30 17:00:00 36 12 Nordeste 31 Norte 0 -- -- 56
2017-07-30 16:00:00 37.1 16 Nordeste 27 Norte 0 -- -- 51
2017-07-30 15:00:00 37.3 13 Nordeste 26 Norte 0 -- -- 51
2017-07-30 14:00:00 35.2 15 Norte 24 Norte 0 -- -- 57
2017-07-30 13:00:00 33.8 10 Norte 19 Norte 0 -- -- 59
2017-07-30 12:00:00 33.2 8 Nordeste 15 Norte 0 -- -- 56
2017-07-30 11:00:00 31 5 Norte 14 Nordeste 0 -- -- 63
2017-07-30 10:00:00 28.6 4 Sudeste 11 Sur 0 -- -- 72
2017-07-30 09:00:00 25.7 5 Sudoeste 9 Sudoeste 0 -- -- 85
2017-07-30 08:00:00 22.8 4 Sur 7 Sur 0 -- -- 96
2017-07-30 07:00:00 21.6 2 Sudeste 4 Sur 0 -- -- 95
2017-07-30 06:00:00 22.3 0 Calma 8 Sur 0 -- -- 95
2017-07-30 05:00:00 23.2 5 Sur 9 Sur 0 -- -- 94
2017-07-30 04:00:00 23.6 3 Sur 5 Sur 0 -- -- 93
2017-07-30 03:00:00 23.2 3 Sudeste 5 Sudeste 0 -- -- 93
2017-07-30 02:00:00 23.4 3 Sudeste 6 Sudeste 0 -- -- 91
2017-07-30 01:00:00 24.6 3 Sur 7 Norte 0 -- -- 90
2017-07-30 00:00:00 25.2 3 Nordeste 14 Nordeste 0 -- -- 89
2017-07-29 23:00:00 25.8 8 Nordeste 22 Nordeste 0 -- -- 87
2017-07-29 22:00:00 26.5 13 Nordeste 28 Nordeste 0 -- -- 85
2017-07-29 21:00:00 27.3 15 Nordeste 29 Nordeste 0 -- -- 81
2017-07-29 20:00:00 29.7 17 Norte 31 Norte 0 -- -- 71
2017-07-29 19:00:00 32.3 19 Norte 31 Norte 0 -- -- 61
2017-07-29 18:00:00 35.9 15 Nordeste 24 Norte 0 -- -- 53
2017-07-29 17:00:00 37.6 10 Este 23 Nordeste 0 -- -- 46
2017-07-29 16:00:00 37.2 11 Este 23 Este 0 -- -- 49
2017-07-29 15:00:00 36.1 10 Este 27 Nordeste 0 -- -- 52
2017-07-29 14:00:00 33.4 15 Norte 23 Norte 0 -- -- 61
2017-07-29 13:00:00 32.5 12 Norte 19 Norte 0 -- -- 62
2017-07-29 12:00:00 31.3 6 Norte 12 Norte 0 -- -- 63
2017-07-29 11:00:00 29.7 5 Este 11 Este 0 -- -- 67
2017-07-29 10:00:00 27.3 3 Sudeste 6 Este 0 -- -- 79
2017-07-29 09:00:00 25.7 3 Sudoeste 5 Sur 0 -- -- 87
2017-07-29 08:00:00 23.5 0 Calma 4 Sudeste 0 -- -- 94
2017-07-29 07:00:00 22.3 3 Sudeste 5 Sur 0 -- -- 94
2017-07-29 06:00:00 22.9 3 Oeste 5 Sudeste 0 -- -- 94
2017-07-29 05:00:00 23.5 0 Calma 4 Oeste 0 -- -- 93
2017-07-29 04:00:00 23.6 2 Sudoeste 4 Oeste 0 -- -- 92
2017-07-29 03:00:00 24.5 2 Norte 8 Norte 0 -- -- 92
2017-07-29 02:00:00 24.9 4 Noroeste 8 Noroeste 0 -- -- 92
2017-07-29 01:00:00 25.4 5 Noroeste 10 Nordeste 0 -- -- 90
2017-07-29 00:00:00 26.2 8 Norte 13 Nordeste 0 -- -- 87
2017-07-28 23:00:00 26.3 6 Nordeste 15 Nordeste 0 -- -- 85
2017-07-28 22:00:00 26.3 10 Nordeste 24 Norte 0 -- -- 86
2017-07-28 21:00:00 27.3 12 Nordeste 23 Norte 0 -- -- 83
2017-07-28 20:00:00 29.7 13 Nordeste 26 Nordeste 0 -- -- 72
2017-07-28 19:00:00 30.5 17 Nordeste 29 Nordeste 0 -- -- 69
2017-07-28 18:00:00 32.5 18 Nordeste 31 Norte 0 -- -- 65
2017-07-28 17:00:00 33.8 17 Nordeste 30 Nordeste 0 -- -- 56
2017-07-28 16:00:00 34.1 18 Nordeste 35 Nordeste 0 -- -- 54
2017-07-28 15:00:00 33.9 18 Nordeste 32 Nordeste 0 -- -- 56
2017-07-28 14:00:00 32.9 17 Norte 26 Norte 0 -- -- 58
2017-07-28 13:00:00 32.3 12 Nordeste 21 Nordeste 0 -- -- 60
2017-07-28 12:00:00 31.3 10 Nordeste 19 Norte 0 -- -- 62
2017-07-28 11:00:00 29.9 7 Nordeste 16 Norte 0 -- -- 70
2017-07-28 10:00:00 27.9 4 Noroeste 9 Noroeste 0 -- -- 78
2017-07-28 09:00:00 24.5 3 Sudeste 5 Sur 0 -- -- 87
2017-07-28 08:00:00 21.8 3 Oeste 5 Oeste 0 -- -- 94
2017-07-28 07:00:00 20.8 2 Sur 4 Sur 0 -- -- 91
2017-07-28 06:00:00 21.5 3 Sur 4 Sudeste 0 -- -- 91
2017-07-28 05:00:00 21.9 0 Calma 6 Sudeste 0 -- -- 89
2017-07-28 04:00:00 22.6 3 Sur 6 Sur 0 -- -- 88
2017-07-28 03:00:00 23.2 2 Sur 4 Sudoeste 0 -- -- 86
2017-07-28 02:00:00 24.2 3 Sur 5 Sur 0 -- -- 84
2017-07-28 01:00:00 25.3 0 Calma 8 Nordeste 0 -- -- 82
2017-07-28 00:00:00 26.2 4 Nordeste 14 Nordeste 0 -- -- 80
2017-07-27 23:00:00 27 10 Nordeste 21 Nordeste 0 -- -- 77
2017-07-27 22:00:00 28 13 Nordeste 25 Nordeste 0 -- -- 71
2017-07-27 21:00:00 29.5 13 Nordeste 27 Norte 0 -- -- 71
2017-07-27 20:00:00 36.6 15 Norte 26 Noroeste 0 -- -- 50
2017-07-27 19:00:00 39.6 15 Sudeste 27 Este 0 -- -- 30
2017-07-27 18:00:00 40 14 Sudeste 26 Este 0 -- -- 31
2017-07-27 17:00:00 40.2 13 Sudeste 24 Sudeste 0 -- -- 30
2017-07-27 16:00:00 39.8 10 Norte 18 Norte 0 -- -- 32
2017-07-27 15:00:00 37.5 12 Nordeste 20 Norte 0 -- -- 44
2017-07-27 14:00:00 35.6 12 Norte 20 Norte 0 -- -- 50
2017-07-27 13:00:00 35.3 11 Nordeste 20 Nordeste 0 -- -- 47
2017-07-27 12:00:00 33.3 4 Sur 12 Este 0 -- -- 44
2017-07-27 11:00:00 30.4 3 Oeste 12 Sur 0 -- -- 58
2017-07-27 10:00:00 27.7 6 Sur 14 Sur 0 -- -- 66
2017-07-27 09:00:00 25.1 5 Sur 10 Sur 0 -- -- 81
2017-07-27 08:00:00 22 3 Sudeste 5 Sur 0 -- -- 93
2017-07-27 07:00:00 21.1 2 Sudoeste 4 Sur 0 -- -- 91
2017-07-27 06:00:00 21.7 3 Sur 3 Sur 0 -- -- 90
2017-07-27 05:00:00 22.3 2 Sur 6 Sudeste 0 -- -- 90
2017-07-27 04:00:00 22.6 3 Sudeste 7 Sur 0 -- -- 89
2017-07-27 03:00:00 23.3 4 Sudeste 5 Sudeste 0 -- -- 87
2017-07-27 02:00:00 24.5 0 Calma 5 Oeste 0 -- -- 84
2017-07-27 01:00:00 24.8 3 Norte 10 Norte 0 -- -- 83
2017-07-27 00:00:00 24.9 7 Norte 15 Norte 0 -- -- 85
2017-07-26 23:00:00 25.6 9 Norte 15 Norte 0 -- -- 83
2017-07-26 22:00:00 26.6 7 Nordeste 13 Nordeste 0 -- -- 76
2017-07-26 21:00:00 28.4 8 Nordeste 21 Nordeste 0 -- -- 68
2017-07-26 20:00:00 30.8 9 Este 23 Este 0 -- -- 59
2017-07-26 19:00:00 31 14 Este 28 Este 0 -- -- 59
2017-07-26 18:00:00 31.4 15 Este 29 Este 0 -- -- 53
2017-07-26 17:00:00 32.5 16 Este 29 Este 0 -- -- 47
2017-07-26 16:00:00 32.6 18 Sudeste 31 Sudeste 0 -- -- 47
2017-07-26 15:00:00 33 15 Sudeste 26 Sudeste 0 -- -- 46
2017-07-26 14:00:00 32.7 12 Sudeste 21 Sudeste 0 -- -- 46
2017-07-26 13:00:00 32.4 4 Sudoeste 14 Noroeste 0 -- -- 48
2017-07-26 12:00:00 30.6 5 Oeste 13 Noroeste 0 -- -- 50
2017-07-26 11:00:00 28.9 5 Sudeste 14 Sudeste 0 -- -- 56
2017-07-26 10:00:00 26.1 6 Sudoeste 10 Oeste 0 -- -- 62
2017-07-26 09:00:00 23.6 7 Sur 10 Sudoeste 0 -- -- 68
2017-07-26 08:00:00 19.1 0 Calma -- -- 0 -- -- 88
2017-07-26 07:00:00 18.3 0 Calma 6 Sur 0 -- -- 86
2017-07-26 06:00:00 19 4 Sur 6 Sur 0 -- -- 86
2017-07-26 05:00:00 19.3 2 Sur 4 Sudeste 0 -- -- 84
2017-07-26 04:00:00 20.4 2 Sur 5 Sudeste 0 -- -- 82
2017-07-26 03:00:00 21.4 0 Calma 6 Sur 0 -- -- 80
2017-07-26 02:00:00 22.6 4 Sur 6 Sur 0 -- -- 77
2017-07-26 01:00:00 23.8 4 Nordeste 9 Nordeste 0 -- -- 71
2017-07-26 00:00:00 24.4 5 Nordeste 9 Nordeste 0 -- -- 70
2017-07-25 23:00:00 24.4 5 Nordeste 13 Este 0 -- -- 69
2017-07-25 22:00:00 25 9 Este 18 Sudeste 0 -- -- 67
2017-07-25 21:00:00 26 12 Este 23 Este 0 -- -- 59
2017-07-25 20:00:00 27.6 14 Este 36 Este 0 -- -- 55
2017-07-25 19:00:00 28.4 16 Este 32 Sudeste 0 -- -- 50
2017-07-25 18:00:00 28.2 21 Este 37 Este 0 -- -- 54
2017-07-25 17:00:00 29.6 18 Este 33 Este 0 -- -- 48
2017-07-25 16:00:00 29 23 Sudeste 42 Este 0 -- -- 49
2017-07-25 15:00:00 29.5 22 Sudeste 40 Sudeste 0 -- -- 48
2017-07-25 14:00:00 29.5 22 Este 39 Sudeste 0 -- -- 48
2017-07-25 13:00:00 29.7 16 Sudeste 28 Sudeste 0 -- -- 49
2017-07-25 12:00:00 29.5 7 Sudeste 21 Este 0 -- -- 51
2017-07-25 11:00:00 27.3 11 Este 23 Sudeste 0 -- -- 57
2017-07-25 10:00:00 27 7 Este 17 Nordeste 0 -- -- 58
2017-07-25 09:00:00 26 9 Nordeste 14 Nordeste 0 -- -- 62
2017-07-25 08:00:00 23.4 3 Sur 5 Sur 0 -- -- 85
2017-07-25 07:00:00 22.7 0 Calma 5 Sudeste 0 -- -- 91
2017-07-25 06:00:00 22.2 3 Sur 4 Sur 0 -- -- 91
2017-07-25 05:00:00 22.2 2 Sur 6 Sur 0 -- -- 89
2017-07-25 04:00:00 22.9 3 Sur 5 Sur 0 -- -- 89
2017-07-25 03:00:00 23.7 4 Sur 7 Sudeste 0 -- -- 87
2017-07-25 02:00:00 24.6 2 Norte 7 Nordeste 0 -- -- 86
2017-07-25 01:00:00 25.1 0 Calma 7 Nordeste 0 -- -- 84
2017-07-25 00:00:00 25.9 4 Este 11 Nordeste 0 -- -- 83
2017-07-24 23:00:00 26.1 4 Nordeste 10 Nordeste 0 -- -- 78
2017-07-24 22:00:00 26.9 5 Nordeste 17 Este 0 -- -- 76
2017-07-24 21:00:00 28 9 Este 19 Este 0 -- -- 72
2017-07-24 20:00:00 29.7 7 Este 35 Sudeste 0 -- -- 58
2017-07-24 19:00:00 30.6 13 Este 31 Este 0 -- -- 54
2017-07-24 18:00:00 30.8 19 Este 34 Sudeste 0 -- -- 52
2017-07-24 17:00:00 32.2 17 Este 29 Este 0 -- -- 45
2017-07-24 16:00:00 32 20 Este 36 Sudeste 0 -- -- 47
2017-07-24 15:00:00 31.7 20 Este 35 Este 0 -- -- 51
2017-07-24 14:00:00 32.6 14 Este 26 Norte 0 -- -- 54
2017-07-24 13:00:00 32 10 Nordeste 22 Nordeste 0 -- -- 58
2017-07-24 12:00:00 30.5 6 Norte 14 Norte 0 -- -- 63
2017-07-24 11:00:00 28.7 4 Norte 11 Noroeste 0 -- -- 67
2017-07-24 10:00:00 27.8 4 Noroeste 8 Oeste 0 -- -- 74
2017-07-24 09:00:00 25.7 3 Sudeste 8 Este 0 -- -- 83
2017-07-24 08:00:00 24 0 Calma -- -- 0 -- -- 91
2017-07-24 07:00:00 23.7 0 Calma -- -- 0 -- -- 90
2017-07-24 06:00:00 24.2 0 Calma -- -- 0 -- -- 90
2017-07-24 05:00:00 24 0 Calma -- -- 0 -- -- 90
2017-07-24 04:00:00 23.7 0 Calma 2 Sudeste 0 -- -- 91
2017-07-24 03:00:00 23.4 0 Calma 5 Sur 0 -- -- 90
2017-07-24 02:00:00 24.1 3 Sur 8 Sudeste 0 -- -- 87
2017-07-24 01:00:00 24.9 4 Sudeste 10 Nordeste 0 -- -- 87
2017-07-24 00:00:00 25.4 7 Nordeste 13 Norte 0 -- -- 87
2017-07-23 23:00:00 26 8 Nordeste 13 Nordeste 0 -- -- 84
2017-07-23 22:00:00 26.6 6 Nordeste 18 Este 0 -- -- 77
2017-07-23 21:00:00 27.6 10 Este 24 Este 0 -- -- 73
2017-07-23 20:00:00 29.5 12 Este 26 Este 0 -- -- 68
2017-07-23 19:00:00 31 14 Este 32 Nordeste 0 -- -- 63
2017-07-23 18:00:00 32.5 19 Nordeste 32 Norte 0 -- -- 57
2017-07-23 17:00:00 33.1 15 Nordeste 30 Nordeste 0 -- -- 54
2017-07-23 16:00:00 32.5 12 Nordeste 22 Norte 0 -- -- 56
2017-07-23 15:00:00 32 12 Nordeste 24 Norte 0 -- -- 59
2017-07-23 14:00:00 31.2 12 Nordeste 24 Nordeste 0 -- -- 61
2017-07-23 13:00:00 29.4 14 Nordeste 23 Nordeste 0 -- -- 68
2017-07-23 12:00:00 28.7 9 Noroeste 18 Nordeste 0 -- -- 70
2017-07-23 11:00:00 27.8 6 Nordeste 16 Norte 0 -- -- 74
2017-07-23 10:00:00 26.2 6 Norte 13 Norte 0 -- -- 80
2017-07-23 09:00:00 24.4 3 Sur 7 Oeste 0 -- -- 87
2017-07-23 08:00:00 23.1 3 Nordeste 5 Sudoeste 0 -- -- 92
2017-07-23 07:00:00 22.7 4 Sudoeste 8 Sudoeste 0 -- -- 92
2017-07-23 06:00:00 22.4 0 Calma 6 Sur 0 -- -- 93
2017-07-23 05:00:00 21.9 0 Calma 5 Sudeste 0 -- -- 92
2017-07-23 04:00:00 21.9 3 Sudeste 7 Sur 0 -- -- 91
2017-07-23 03:00:00 22.4 3 Sudeste 5 Sur 0 -- -- 89
2017-07-23 02:00:00 23.1 3 Sudeste 5 Sudeste 0 -- -- 87
2017-07-23 01:00:00 24.4 3 Noroeste 10 Norte 0 -- -- 84
2017-07-23 00:00:00 25.1 6 Norte 15 Norte 0 -- -- 82
2017-07-22 23:00:00 25.5 10 Norte 17 Norte 0 -- -- 82
2017-07-22 22:00:00 26.4 9 Norte 21 Norte 0 -- -- 79
2017-07-22 21:00:00 27.7 12 Norte 24 Norte 0 -- -- 74
2017-07-22 20:00:00 29.5 11 Nordeste 19 Nordeste 0 -- -- 67
2017-07-22 19:00:00 31.6 13 Nordeste 22 Norte 0 -- -- 56
2017-07-22 18:00:00 31.8 14 Este 24 Este 0 -- -- 54
2017-07-22 17:00:00 32.8 14 Este 29 Este 0 -- -- 54
2017-07-22 16:00:00 33.5 15 Este 24 Nordeste 0 -- -- 52
2017-07-22 15:00:00 33.5 17 Nordeste 30 Nordeste 0 -- -- 53
2017-07-22 14:00:00 31.7 15 Nordeste 28 Norte 0 -- -- 61
2017-07-22 13:00:00 31.5 12 Nordeste 22 Norte 0 -- -- 60
2017-07-22 12:00:00 29.2 6 Nordeste 18 Norte 0 -- -- 67
2017-07-22 11:00:00 28.7 8 Nordeste 14 Nordeste 0 -- -- 70
2017-07-22 10:00:00 27 3 Oeste 6 Nordeste 0 -- -- 78
2017-07-22 09:00:00 25.6 4 Sur 9 Sur 0 -- -- 85
2017-07-22 08:00:00 23.6 0 Calma 3 Sur 0 -- -- 93
2017-07-22 07:00:00 22.8 2 Sudoeste 7 Sur 0 -- -- 93
2017-07-22 06:00:00 22.3 2 Sudeste 8 Sur 0 -- -- 93
2017-07-22 05:00:00 22.2 2 Sudeste 4 Sudeste 0 -- -- 89
2017-07-22 04:00:00 22.8 0 Calma -- -- 0 -- -- 89
2017-07-22 03:00:00 23.2 0 Calma 4 Sudeste 0 -- -- 88
2017-07-22 02:00:00 24.2 0 Calma 6 Nordeste 0 -- -- 86
2017-07-22 01:00:00 25 5 Nordeste 12 Nordeste 0 -- -- 87
2017-07-22 00:00:00 25.2 8 Nordeste 15 Nordeste 0 -- -- 85
2017-07-21 23:00:00 25.8 9 Nordeste 18 Nordeste 0 -- -- 82
2017-07-21 22:00:00 26.5 9 Nordeste 22 Este 0 -- -- 78
2017-07-21 21:00:00 27.7 10 Este 23 Este 0 -- -- 69
2017-07-21 20:00:00 29.3 15 Este 24 Este 0 -- -- 64
2017-07-21 19:00:00 30.2 13 Este 30 Nordeste 0 -- -- 62
2017-07-21 18:00:00 31.1 16 Este 32 Nordeste 0 -- -- 58
2017-07-21 17:00:00 32.5 15 Nordeste 30 Nordeste 0 -- -- 57
2017-07-21 16:00:00 32.2 17 Este 29 Este 0 -- -- 56
2017-07-21 15:00:00 31.8 15 Este 30 Nordeste 0 -- -- 58
2017-07-21 14:00:00 31.5 15 Nordeste 27 Nordeste 0 -- -- 59
2017-07-21 13:00:00 31.7 10 Este 24 Este 0 -- -- 58
2017-07-21 12:00:00 29.7 10 Este 18 Nordeste 0 -- -- 63
2017-07-21 11:00:00 27.7 7 Nordeste 14 Norte 0 -- -- 75
2017-07-21 10:00:00 26.4 8 Nordeste 12 Nordeste 0 -- -- 77
2017-07-21 09:00:00 26.1 7 Sudeste 14 Sudeste 0 -- -- 80
2017-07-21 08:00:00 24.8 5 Nordeste 12 Nordeste 0 -- -- 86
2017-07-21 07:00:00 24 3 Nordeste 9 Nordeste 0 -- -- 88
2017-07-21 06:00:00 24.1 5 Nordeste 8 Nordeste 0 -- -- 86
2017-07-21 05:00:00 24.6 4 Nordeste 9 Este 0 -- -- 85
2017-07-21 04:00:00 25.1 5 Nordeste 11 Nordeste 0 -- -- 83
2017-07-21 03:00:00 25.1 8 Nordeste 15 Nordeste 0 -- -- 84
2017-07-21 02:00:00 25.5 8 Nordeste 15 Nordeste 0 -- -- 83
2017-07-21 01:00:00 25.6 7 Nordeste 17 Nordeste 0 -- -- 84
2017-07-21 00:00:00 25.9 7 Nordeste 15 Nordeste 0 -- -- 84
2017-07-20 23:00:00 26.3 8 Nordeste 15 Nordeste 0 -- -- 81
2017-07-20 22:00:00 26.8 7 Nordeste 17 Este 0 -- -- 73
2017-07-20 21:00:00 27.9 10 Este 22 Este 0 -- -- 69
2017-07-20 20:00:00 29.9 12 Nordeste 25 Este 0 -- -- 65
2017-07-20 19:00:00 30.6 13 Nordeste 27 Sudeste 0 -- -- 65
2017-07-20 18:00:00 32.1 14 Nordeste 29 Nordeste 0 -- -- 56
2017-07-20 17:00:00 32.8 14 Nordeste 29 Nordeste 0 -- -- 53
2017-07-20 16:00:00 33.5 15 Nordeste 30 Nordeste 0 -- -- 54
2017-07-20 15:00:00 32.9 15 Nordeste 27 Nordeste 0 -- -- 56
2017-07-20 14:00:00 31.8 17 Nordeste 29 Nordeste 0 -- -- 59
2017-07-20 13:00:00 31 14 Nordeste 26 Nordeste 0 -- -- 63
2017-07-20 12:00:00 29.4 8 Este 16 Este 0 -- -- 68
2017-07-20 11:00:00 28.7 6 Nordeste 13 Norte 0 -- -- 69
2017-07-20 10:00:00 26.2 3 Oeste 6 Oeste 0 -- -- 75
2017-07-20 09:00:00 24.9 3 Sudoeste 6 Sudoeste 0 -- -- 79
2017-07-20 08:00:00 22.4 4 Sur 8 Sur 0 -- -- 91
2017-07-20 07:00:00 21.2 5 Sur 7 Sur 0 -- -- 91
2017-07-20 06:00:00 21.6 4 Sur 7 Sur 0 -- -- 92
2017-07-20 05:00:00 21.4 0 Calma 2 Sur 0 -- -- 90
2017-07-20 04:00:00 22 0 Calma 4 Sudeste 0 -- -- 88
2017-07-20 03:00:00 22.4 3 Sur 5 Sudeste 0 -- -- 87
2017-07-20 02:00:00 23 3 Sudeste 6 Sudeste 0 -- -- 88
2017-07-20 01:00:00 24 0 Calma 5 Nordeste 0 -- -- 85
2017-07-20 00:00:00 24.8 3 Nordeste 11 Nordeste 0 -- -- 83
2017-07-19 23:00:00 25.5 6 Nordeste 16 Norte 0 -- -- 80
2017-07-19 22:00:00 26 10 Nordeste 19 Norte 0 -- -- 77
2017-07-19 21:00:00 27.5 10 Nordeste 21 Nordeste 0 -- -- 67
2017-07-19 20:00:00 29.6 15 Norte 24 Nordeste 0 -- -- 50
2017-07-19 19:00:00 31.4 14 Nordeste 27 Nordeste 0 -- -- 48
2017-07-19 18:00:00 32.1 18 Nordeste 30 Norte 0 -- -- 50
2017-07-19 17:00:00 32.8 15 Nordeste 27 Nordeste 0 -- -- 56
2017-07-19 16:00:00 33.1 19 Nordeste 30 Nordeste 0 -- -- 52
2017-07-19 15:00:00 32.9 17 Nordeste 28 Norte 0 -- -- 54
2017-07-19 14:00:00 32.5 12 Nordeste 26 Este 0 -- -- 54
2017-07-19 13:00:00 31.4 12 Nordeste 19 Este 0 -- -- 60
2017-07-19 12:00:00 29.5 8 Norte 19 Norte 0 -- -- 64
2017-07-19 11:00:00 27.7 6 Norte 12 Norte 0 -- -- 74
2017-07-19 10:00:00 25.8 6 Noroeste 12 Noroeste 0 -- -- 81
2017-07-19 09:00:00 25.3 0 Calma 4 Sudoeste 0 -- -- 87
2017-07-19 08:00:00 23.4 0 Calma 6 Este 0 -- -- 92
2017-07-19 07:00:00 23.4 4 Nordeste 12 Norte 0 -- -- 92
2017-07-19 06:00:00 23.2 5 Este 12 Sur 0 -- -- 92
2017-07-19 05:00:00 23.2 3 Este 14 Este 0 -- -- 91
2017-07-19 04:00:00 23.3 5 Este 9 Oeste 0 -- -- 90
2017-07-19 03:00:00 22.7 2 Nordeste 6 Sudeste 0 -- -- 87
2017-07-19 02:00:00 23.9 4 Sudeste 8 Nordeste 0 -- -- 85
2017-07-19 01:00:00 25.1 5 Nordeste 10 Nordeste 0 -- -- 83
2017-07-19 00:00:00 25.4 6 Nordeste 18 Nordeste 0 -- -- 83